Whiteville, Tennessee
Current Conditions -  °F | °C
As of 8:53 PM on Friday 28 Nov 2014 (Local Time) from KMKL Reporting Station
Clear Clear  
Wind Chill: 40°   Ceiling: Unl
Heat Index: 45°   Visibility: 10mi
Dew Point: 27°   Wind: 10mph
Humidity: 49%   Direction: 180°S
Pressure: 30.12"   Gusts: 20mph
Location:  35.33°N, 89.15°W
Report Text: KMKL 290253Z AUTO 18009G17KT 10SM CLR 07/M03 A3012 RMK AO2 SLP200 T00721028 58011
Loading
Personal Weather Stations






























Interactive Weather Map New forecast layout! Learn more

10-Day Weather Forecast

Advertisements
Track Severe Weather on mobile